sensor_id;sensor_type;location;lat;lon;timestamp;P1;durP1;ratioP1;P2;durP2;ratioP2
70997;SDS011;58663;52.040;4.634;2022-09-29T00:02:11;12.18;;;5.70;;
70997;SDS011;58663;52.040;4.634;2022-09-29T00:04:37;11.02;;;5.35;;
70997;SDS011;58663;52.040;4.634;2022-09-29T00:07:02;11.65;;;5.32;;
70997;SDS011;58663;52.040;4.634;2022-09-29T00:09:28;10.95;;;5.75;;
70997;SDS011;58663;52.040;4.634;2022-09-29T00:11:54;11.35;;;6.30;;
70997;SDS011;58663;52.040;4.634;2022-09-29T00:14:20;11.95;;;5.95;;
70997;SDS011;58663;52.040;4.634;2022-09-29T00:16:46;10.38;;;5.85;;
70997;SDS011;58663;52.040;4.634;2022-09-29T00:19:12;9.07;;;5.20;;
70997;SDS011;58663;52.040;4.634;2022-09-29T00:21:38;11.50;;;5.45;;
70997;SDS011;58663;52.040;4.634;2022-09-29T00:24:03;12.07;;;5.90;;
70997;SDS011;58663;52.040;4.634;2022-09-29T00:26:29;9.05;;;5.93;;
70997;SDS011;58663;52.040;4.634;2022-09-29T00:28:56;10.18;;;5.72;;
70997;SDS011;58663;52.040;4.634;2022-09-29T00:31:24;10.80;;;5.90;;
70997;SDS011;58663;52.040;4.634;2022-09-29T00:33:51;11.98;;;6.60;;
70997;SDS011;58663;52.040;4.634;2022-09-29T00:36:17;12.23;;;6.13;;
70997;SDS011;58663;52.040;4.634;2022-09-29T00:38:44;9.63;;;5.82;;
70997;SDS011;58663;52.040;4.634;2022-09-29T00:41:15;9.90;;;6.45;;
70997;SDS011;58663;52.040;4.634;2022-09-29T00:43:48;10.18;;;6.18;;
70997;SDS011;58663;52.040;4.634;2022-09-29T00:46:14;11.25;;;6.00;;
70997;SDS011;58663;52.040;4.634;2022-09-29T00:48:43;12.27;;;6.85;;
70997;SDS011;58663;52.040;4.634;2022-09-29T00:51:09;10.43;;;6.40;;
70997;SDS011;58663;52.040;4.634;2022-09-29T00:53:35;16.58;;;6.90;;
70997;SDS011;58663;52.040;4.634;2022-09-29T00:56:04;11.80;;;6.45;;
70997;SDS011;58663;52.040;4.634;2022-09-29T01:01:21;10.50;;;6.65;;
70997;SDS011;58663;52.040;4.634;2022-09-29T01:03:47;12.30;;;7.03;;
70997;SDS011;58663;52.040;4.634;2022-09-29T01:06:16;11.05;;;6.70;;
70997;SDS011;58663;52.040;4.634;2022-09-29T01:11:22;11.00;;;6.63;;
70997;SDS011;58663;52.040;4.634;2022-09-29T01:13:48;16.55;;;7.65;;
70997;SDS011;58663;52.040;4.634;2022-09-29T01:16:14;17.42;;;7.93;;
70997;SDS011;58663;52.040;4.634;2022-09-29T01:18:41;20.88;;;7.47;;
70997;SDS011;58663;52.040;4.634;2022-09-29T01:34:55;13.32;;;8.20;;
70997;SDS011;58663;52.040;4.634;2022-09-29T01:37:33;14.95;;;8.40;;
70997;SDS011;58663;52.040;4.634;2022-09-29T01:40:09;14.88;;;8.00;;
70997;SDS011;58663;52.040;4.634;2022-09-29T01:48:24;18.27;;;8.88;;
70997;SDS011;58663;52.040;4.634;2022-09-29T01:50:54;19.85;;;9.35;;
70997;SDS011;58663;52.040;4.634;2022-09-29T01:53:29;16.05;;;8.68;;
70997;SDS011;58663;52.040;4.634;2022-09-29T01:56:01;22.38;;;9.20;;
70997;SDS011;58663;52.040;4.634;2022-09-29T01:58:32;18.45;;;9.27;;
70997;SDS011;58663;52.040;4.634;2022-09-29T02:01:03;18.40;;;10.00;;
70997;SDS011;58663;52.040;4.634;2022-09-29T02:03:34;19.63;;;10.07;;
70997;SDS011;58663;52.040;4.634;2022-09-29T02:06:10;20.50;;;9.52;;
70997;SDS011;58663;52.040;4.634;2022-09-29T02:08:46;20.02;;;9.02;;
70997;SDS011;58663;52.040;4.634;2022-09-29T02:11:14;19.23;;;9.40;;
70997;SDS011;58663;52.040;4.634;2022-09-29T02:13:45;19.35;;;9.95;;
70997;SDS011;58663;52.040;4.634;2022-09-29T02:16:16;21.88;;;10.00;;
70997;SDS011;58663;52.040;4.634;2022-09-29T02:21:32;24.05;;;10.40;;
70997;SDS011;58663;52.040;4.634;2022-09-29T02:23:58;24.95;;;11.40;;
70997;SDS011;58663;52.040;4.634;2022-09-29T02:26:25;16.65;;;9.48;;
70997;SDS011;58663;52.040;4.634;2022-09-29T02:28:54;25.23;;;10.57;;
70997;SDS011;58663;52.040;4.634;2022-09-29T02:31:20;27.05;;;11.65;;
70997;SDS011;58663;52.040;4.634;2022-09-29T02:33:45;34.05;;;13.60;;
70997;SDS011;58663;52.040;4.634;2022-09-29T02:39:12;31.88;;;14.30;;
70997;SDS011;58663;52.040;4.634;2022-09-29T02:50:31;37.73;;;17.27;;
70997;SDS011;58663;52.040;4.634;2022-09-29T02:58:19;33.78;;;15.27;;
70997;SDS011;58663;52.040;4.634;2022-09-29T03:01:03;35.65;;;15.45;;
70997;SDS011;58663;52.040;4.634;2022-09-29T03:03:29;29.75;;;14.10;;
70997;SDS011;58663;52.040;4.634;2022-09-29T03:05:55;28.13;;;13.80;;
70997;SDS011;58663;52.040;4.634;2022-09-29T03:08:20;26.48;;;13.05;;
70997;SDS011;58663;52.040;4.634;2022-09-29T03:10:46;24.92;;;12.98;;
70997;SDS011;58663;52.040;4.634;2022-09-29T03:13:11;28.40;;;12.63;;
70997;SDS011;58663;52.040;4.634;2022-09-29T03:15:37;27.73;;;12.75;;
70997;SDS011;58663;52.040;4.634;2022-09-29T03:18:02;26.88;;;12.30;;
70997;SDS011;58663;52.040;4.634;2022-09-29T03:20:28;26.05;;;11.95;;
70997;SDS011;58663;52.040;4.634;2022-09-29T03:22:54;23.45;;;11.38;;
70997;SDS011;58663;52.040;4.634;2022-09-29T03:25:20;25.20;;;11.35;;
70997;SDS011;58663;52.040;4.634;2022-09-29T03:27:47;22.02;;;11.63;;
70997;SDS011;58663;52.040;4.634;2022-09-29T03:30:14;24.05;;;11.32;;
70997;SDS011;58663;52.040;4.634;2022-09-29T03:32:40;21.58;;;11.80;;
70997;SDS011;58663;52.040;4.634;2022-09-29T03:35:07;26.23;;;11.68;;
70997;SDS011;58663;52.040;4.634;2022-09-29T03:37:33;21.83;;;11.43;;
70997;SDS011;58663;52.040;4.634;2022-09-29T03:39:58;23.13;;;11.63;;
70997;SDS011;58663;52.040;4.634;2022-09-29T03:42:24;22.02;;;11.90;;
70997;SDS011;58663;52.040;4.634;2022-09-29T03:44:52;21.38;;;12.00;;
70997;SDS011;58663;52.040;4.634;2022-09-29T03:47:17;23.90;;;11.85;;
70997;SDS011;58663;52.040;4.634;2022-09-29T03:49:43;25.95;;;11.90;;
70997;SDS011;58663;52.040;4.634;2022-09-29T03:52:08;26.45;;;12.60;;
70997;SDS011;58663;52.040;4.634;2022-09-29T03:54:34;26.55;;;12.30;;
70997;SDS011;58663;52.040;4.634;2022-09-29T03:57:00;24.05;;;12.52;;
70997;SDS011;58663;52.040;4.634;2022-09-29T03:59:25;25.63;;;11.52;;
70997;SDS011;58663;52.040;4.634;2022-09-29T04:01:51;29.30;;;13.05;;
70997;SDS011;58663;52.040;4.634;2022-09-29T04:04:16;26.20;;;12.90;;
70997;SDS011;58663;52.040;4.634;2022-09-29T04:06:42;24.83;;;13.50;;
70997;SDS011;58663;52.040;4.634;2022-09-29T04:09:08;29.50;;;13.60;;
70997;SDS011;58663;52.040;4.634;2022-09-29T04:11:33;24.83;;;12.77;;
70997;SDS011;58663;52.040;4.634;2022-09-29T04:13:59;25.50;;;13.43;;
70997;SDS011;58663;52.040;4.634;2022-09-29T04:16:24;24.67;;;12.38;;
70997;SDS011;58663;52.040;4.634;2022-09-29T04:18:50;24.58;;;13.07;;
70997;SDS011;58663;52.040;4.634;2022-09-29T04:21:15;25.17;;;12.85;;
70997;SDS011;58663;52.040;4.634;2022-09-29T04:23:41;27.17;;;13.18;;
70997;SDS011;58663;52.040;4.634;2022-09-29T04:26:07;30.50;;;12.77;;
70997;SDS011;58663;52.040;4.634;2022-09-29T04:28:33;28.65;;;13.32;;
70997;SDS011;58663;52.040;4.634;2022-09-29T04:31:00;26.05;;;12.85;;
70997;SDS011;58663;52.040;4.634;2022-09-29T04:33:26;28.95;;;14.15;;
70997;SDS011;58663;52.040;4.634;2022-09-29T04:35:54;28.25;;;13.35;;
70997;SDS011;58663;52.040;4.634;2022-09-29T04:38:20;27.23;;;14.00;;
70997;SDS011;58663;52.040;4.634;2022-09-29T04:40:47;21.30;;;12.82;;
70997;SDS011;58663;52.040;4.634;2022-09-29T04:43:12;28.60;;;12.90;;
70997;SDS011;58663;52.040;4.634;2022-09-29T04:45:38;23.80;;;12.30;;
70997;SDS011;58663;52.040;4.634;2022-09-29T04:48:04;25.20;;;13.02;;
70997;SDS011;58663;52.040;4.634;2022-09-29T04:50:29;24.65;;;12.82;;
70997;SDS011;58663;52.040;4.634;2022-09-29T04:52:55;30.52;;;14.80;;
70997;SDS011;58663;52.040;4.634;2022-09-29T04:55:21;24.63;;;12.80;;
70997;SDS011;58663;52.040;4.634;2022-09-29T04:57:47;27.33;;;14.32;;
70997;SDS011;58663;52.040;4.634;2022-09-29T05:00:13;29.23;;;14.65;;
70997;SDS011;58663;52.040;4.634;2022-09-29T05:02:39;27.02;;;14.35;;
70997;SDS011;58663;52.040;4.634;2022-09-29T05:05:05;31.65;;;13.38;;
70997;SDS011;58663;52.040;4.634;2022-09-29T05:07:33;28.13;;;12.80;;
70997;SDS011;58663;52.040;4.634;2022-09-29T05:09:59;33.17;;;14.00;;
70997;SDS011;58663;52.040;4.634;2022-09-29T05:12:24;20.80;;;11.77;;
70997;SDS011;58663;52.040;4.634;2022-09-29T05:14:50;29.13;;;13.73;;
70997;SDS011;58663;52.040;4.634;2022-09-29T05:17:16;29.92;;;12.82;;
70997;SDS011;58663;52.040;4.634;2022-09-29T05:19:41;24.45;;;12.55;;
70997;SDS011;58663;52.040;4.634;2022-09-29T05:22:07;24.98;;;13.65;;
70997;SDS011;58663;52.040;4.634;2022-09-29T05:24:32;22.52;;;12.73;;
70997;SDS011;58663;52.040;4.634;2022-09-29T05:26:58;26.67;;;13.02;;
70997;SDS011;58663;52.040;4.634;2022-09-29T05:29:24;31.25;;;13.43;;
70997;SDS011;58663;52.040;4.634;2022-09-29T05:31:50;23.40;;;13.05;;
70997;SDS011;58663;52.040;4.634;2022-09-29T05:34:15;29.45;;;13.50;;
70997;SDS011;58663;52.040;4.634;2022-09-29T05:36:41;26.38;;;13.45;;
70997;SDS011;58663;52.040;4.634;2022-09-29T05:39:07;27.70;;;13.15;;
70997;SDS011;58663;52.040;4.634;2022-09-29T05:41:32;22.23;;;13.13;;
70997;SDS011;58663;52.040;4.634;2022-09-29T05:43:59;29.98;;;13.85;;
70997;SDS011;58663;52.040;4.634;2022-09-29T05:46:25;27.33;;;13.65;;
70997;SDS011;58663;52.040;4.634;2022-09-29T05:48:51;27.13;;;14.30;;
70997;SDS011;58663;52.040;4.634;2022-09-29T05:51:17;26.27;;;12.10;;
70997;SDS011;58663;52.040;4.634;2022-09-29T05:53:44;29.23;;;13.63;;
70997;SDS011;58663;52.040;4.634;2022-09-29T05:56:12;28.42;;;13.07;;
70997;SDS011;58663;52.040;4.634;2022-09-29T05:58:39;30.50;;;13.20;;
70997;SDS011;58663;52.040;4.634;2022-09-29T06:01:06;25.50;;;13.15;;
70997;SDS011;58663;52.040;4.634;2022-09-29T06:03:33;31.70;;;14.73;;
70997;SDS011;58663;52.040;4.634;2022-09-29T06:06:09;34.92;;;15.25;;
70997;SDS011;58663;52.040;4.634;2022-09-29T06:08:37;41.15;;;14.02;;
70997;SDS011;58663;52.040;4.634;2022-09-29T06:11:03;30.42;;;14.38;;
70997;SDS011;58663;52.040;4.634;2022-09-29T06:13:30;29.95;;;14.77;;
70997;SDS011;58663;52.040;4.634;2022-09-29T06:15:57;32.20;;;15.73;;
70997;SDS011;58663;52.040;4.634;2022-09-29T06:18:23;34.60;;;15.48;;
70997;SDS011;58663;52.040;4.634;2022-09-29T06:20:49;34.35;;;16.10;;
70997;SDS011;58663;52.040;4.634;2022-09-29T06:23:14;31.58;;;15.27;;
70997;SDS011;58663;52.040;4.634;2022-09-29T06:25:40;28.95;;;14.93;;
70997;SDS011;58663;52.040;4.634;2022-09-29T06:28:05;36.90;;;16.73;;
70997;SDS011;58663;52.040;4.634;2022-09-29T06:30:31;37.05;;;16.33;;
70997;SDS011;58663;52.040;4.634;2022-09-29T06:32:56;44.05;;;16.25;;
70997;SDS011;58663;52.040;4.634;2022-09-29T06:35:22;37.33;;;15.57;;
70997;SDS011;58663;52.040;4.634;2022-09-29T06:38:06;39.53;;;16.95;;
70997;SDS011;58663;52.040;4.634;2022-09-29T06:40:31;42.03;;;17.10;;
70997;SDS011;58663;52.040;4.634;2022-09-29T06:42:57;39.13;;;17.42;;
70997;SDS011;58663;52.040;4.634;2022-09-29T06:45:22;39.88;;;18.20;;
70997;SDS011;58663;52.040;4.634;2022-09-29T06:47:48;39.95;;;18.27;;
70997;SDS011;58663;52.040;4.634;2022-09-29T06:50:14;57.70;;;19.60;;
70997;SDS011;58663;52.040;4.634;2022-09-29T06:52:40;41.72;;;18.50;;
70997;SDS011;58663;52.040;4.634;2022-09-29T06:55:05;46.65;;;19.52;;
70997;SDS011;58663;52.040;4.634;2022-09-29T06:57:31;47.03;;;18.35;;
70997;SDS011;58663;52.040;4.634;2022-09-29T06:59:57;42.13;;;17.98;;
70997;SDS011;58663;52.040;4.634;2022-09-29T07:02:22;52.83;;;19.23;;
70997;SDS011;58663;52.040;4.634;2022-09-29T07:04:48;43.22;;;19.02;;
70997;SDS011;58663;52.040;4.634;2022-09-29T07:07:14;47.13;;;19.23;;
70997;SDS011;58663;52.040;4.634;2022-09-29T07:09:40;38.90;;;18.98;;
70997;SDS011;58663;52.040;4.634;2022-09-29T07:12:06;41.13;;;18.65;;
70997;SDS011;58663;52.040;4.634;2022-09-29T07:14:32;47.78;;;21.02;;
70997;SDS011;58663;52.040;4.634;2022-09-29T07:16:57;41.25;;;19.15;;
70997;SDS011;58663;52.040;4.634;2022-09-29T07:19:24;51.53;;;21.50;;
70997;SDS011;58663;52.040;4.634;2022-09-29T07:21:50;47.53;;;21.55;;
70997;SDS011;58663;52.040;4.634;2022-09-29T07:24:16;57.35;;;22.17;;
70997;SDS011;58663;52.040;4.634;2022-09-29T07:26:42;47.90;;;21.85;;
70997;SDS011;58663;52.040;4.634;2022-09-29T07:29:07;50.00;;;22.92;;
70997;SDS011;58663;52.040;4.634;2022-09-29T07:31:33;56.28;;;23.88;;
70997;SDS011;58663;52.040;4.634;2022-09-29T07:33:59;47.25;;;22.88;;
70997;SDS011;58663;52.040;4.634;2022-09-29T07:36:24;62.08;;;24.33;;
70997;SDS011;58663;52.040;4.634;2022-09-29T07:38:50;56.40;;;24.92;;
70997;SDS011;58663;52.040;4.634;2022-09-29T07:41:20;67.72;;;25.60;;
70997;SDS011;58663;52.040;4.634;2022-09-29T07:43:46;66.32;;;25.92;;
70997;SDS011;58663;52.040;4.634;2022-09-29T07:46:12;59.00;;;26.33;;
70997;SDS011;58663;52.040;4.634;2022-09-29T07:48:38;72.40;;;27.60;;
70997;SDS011;58663;52.040;4.634;2022-09-29T07:53:35;67.80;;;27.65;;
70997;SDS011;58663;52.040;4.634;2022-09-29T07:56:01;76.97;;;29.88;;
70997;SDS011;58663;52.040;4.634;2022-09-29T07:58:28;78.75;;;30.75;;
70997;SDS011;58663;52.040;4.634;2022-09-29T08:00:56;80.55;;;31.35;;
70997;SDS011;58663;52.040;4.634;2022-09-29T08:03:24;87.50;;;30.13;;
70997;SDS011;58663;52.040;4.634;2022-09-29T08:05:53;74.55;;;29.67;;
70997;SDS011;58663;52.040;4.634;2022-09-29T08:08:18;78.75;;;28.10;;
70997;SDS011;58663;52.040;4.634;2022-09-29T08:10:44;62.67;;;27.08;;
70997;SDS011;58663;52.040;4.634;2022-09-29T08:13:09;73.45;;;27.70;;
70997;SDS011;58663;52.040;4.634;2022-09-29T08:15:35;66.90;;;26.98;;
70997;SDS011;58663;52.040;4.634;2022-09-29T08:18:04;75.68;;;29.08;;
70997;SDS011;58663;52.040;4.634;2022-09-29T08:20:34;69.78;;;27.67;;
70997;SDS011;58663;52.040;4.634;2022-09-29T08:23:00;63.10;;;28.60;;
70997;SDS011;58663;52.040;4.634;2022-09-29T08:25:26;62.58;;;27.48;;
70997;SDS011;58663;52.040;4.634;2022-09-29T08:27:52;71.15;;;27.90;;
70997;SDS011;58663;52.040;4.634;2022-09-29T08:30:18;69.90;;;28.92;;
70997;SDS011;58663;52.040;4.634;2022-09-29T08:32:49;65.80;;;28.10;;
70997;SDS011;58663;52.040;4.634;2022-09-29T08:35:16;76.47;;;30.02;;
70997;SDS011;58663;52.040;4.634;2022-09-29T08:37:41;73.28;;;28.35;;
70997;SDS011;58663;52.040;4.634;2022-09-29T08:40:07;71.63;;;28.50;;
70997;SDS011;58663;52.040;4.634;2022-09-29T08:45:32;70.93;;;28.95;;
70997;SDS011;58663;52.040;4.634;2022-09-29T08:48:07;79.85;;;29.30;;
70997;SDS011;58663;52.040;4.634;2022-09-29T08:50:55;75.75;;;28.65;;
70997;SDS011;58663;52.040;4.634;2022-09-29T08:53:23;71.53;;;27.83;;
70997;SDS011;58663;52.040;4.634;2022-09-29T08:55:57;65.50;;;25.27;;
70997;SDS011;58663;52.040;4.634;2022-09-29T08:58:25;72.25;;;27.80;;
70997;SDS011;58663;52.040;4.634;2022-09-29T09:06:11;66.82;;;25.75;;
70997;SDS011;58663;52.040;4.634;2022-09-29T09:17:00;75.40;;;28.77;;
70997;SDS011;58663;52.040;4.634;2022-09-29T09:22:25;63.10;;;23.67;;
70997;SDS011;58663;52.040;4.634;2022-09-29T09:31:00;40.55;;;15.05;;
70997;SDS011;58663;52.040;4.634;2022-09-29T09:39:04;41.65;;;14.07;;
70997;SDS011;58663;52.040;4.634;2022-09-29T09:41:41;42.38;;;15.27;;
70997;SDS011;58663;52.040;4.634;2022-09-29T09:44:16;43.97;;;14.85;;
70997;SDS011;58663;52.040;4.634;2022-09-29T09:49:36;36.90;;;14.25;;
70997;SDS011;58663;52.040;4.634;2022-09-29T09:54:37;30.88;;;12.30;;
70997;SDS011;58663;52.040;4.634;2022-09-29T09:57:22;24.08;;;11.15;;
70997;SDS011;58663;52.040;4.634;2022-09-29T10:02:37;23.60;;;11.67;;
70997;SDS011;58663;52.040;4.634;2022-09-29T10:05:12;26.75;;;11.93;;
70997;SDS011;58663;52.040;4.634;2022-09-29T10:07:40;32.53;;;13.75;;
70997;SDS011;58663;52.040;4.634;2022-09-29T10:10:12;30.90;;;14.10;;
70997;SDS011;58663;52.040;4.634;2022-09-29T10:12:43;32.00;;;12.75;;
70997;SDS011;58663;52.040;4.634;2022-09-29T10:15:27;30.45;;;14.85;;
70997;SDS011;58663;52.040;4.634;2022-09-29T10:20:46;22.67;;;11.30;;
70997;SDS011;58663;52.040;4.634;2022-09-29T10:23:18;11.80;;;7.22;;
70997;SDS011;58663;52.040;4.634;2022-09-29T10:25:51;17.25;;;9.85;;
70997;SDS011;58663;52.040;4.634;2022-09-29T10:28:36;24.48;;;12.10;;
70997;SDS011;58663;52.040;4.634;2022-09-29T10:31:13;24.05;;;11.15;;
70997;SDS011;58663;52.040;4.634;2022-09-29T10:33:52;19.85;;;9.23;;
70997;SDS011;58663;52.040;4.634;2022-09-29T10:36:20;20.48;;;9.15;;
70997;SDS011;58663;52.040;4.634;2022-09-29T10:38:47;13.43;;;8.40;;
70997;SDS011;58663;52.040;4.634;2022-09-29T10:41:14;16.70;;;9.13;;
70997;SDS011;58663;52.040;4.634;2022-09-29T10:43:41;13.95;;;6.95;;
70997;SDS011;58663;52.040;4.634;2022-09-29T10:54:55;8.23;;;4.40;;
70997;SDS011;58663;52.040;4.634;2022-09-29T10:57:24;7.50;;;4.10;;
70997;SDS011;58663;52.040;4.634;2022-09-29T10:59:51;7.07;;;4.95;;
70997;SDS011;58663;52.040;4.634;2022-09-29T11:02:23;10.02;;;5.53;;
70997;SDS011;58663;52.040;4.634;2022-09-29T11:04:52;7.47;;;4.50;;
70997;SDS011;58663;52.040;4.634;2022-09-29T11:07:21;6.97;;;3.75;;
70997;SDS011;58663;52.040;4.634;2022-09-29T11:09:46;7.63;;;4.20;;
70997;SDS011;58663;52.040;4.634;2022-09-29T11:12:28;8.80;;;4.38;;
70997;SDS011;58663;52.040;4.634;2022-09-29T11:14:56;4.53;;;3.53;;
70997;SDS011;58663;52.040;4.634;2022-09-29T11:17:31;5.85;;;2.50;;
70997;SDS011;58663;52.040;4.634;2022-09-29T11:20:03;5.85;;;2.70;;
70997;SDS011;58663;52.040;4.634;2022-09-29T11:22:52;5.40;;;2.75;;
70997;SDS011;58663;52.040;4.634;2022-09-29T11:25:31;6.60;;;4.70;;
70997;SDS011;58663;52.040;4.634;2022-09-29T11:33:45;5.75;;;4.68;;
70997;SDS011;58663;52.040;4.634;2022-09-29T12:07:05;2.17;;;1.90;;
70997;SDS011;58663;52.040;4.634;2022-09-29T12:12:44;4.55;;;2.75;;
70997;SDS011;58663;52.040;4.634;2022-09-29T12:17:55;3.83;;;2.90;;
70997;SDS011;58663;52.040;4.634;2022-09-29T12:20:24;2.87;;;2.53;;
70997;SDS011;58663;52.040;4.634;2022-09-29T12:22:51;3.97;;;2.92;;
70997;SDS011;58663;52.040;4.634;2022-09-29T12:25:19;2.90;;;1.70;;
70997;SDS011;58663;52.040;4.634;2022-09-29T12:30:17;3.20;;;2.78;;
70997;SDS011;58663;52.040;4.634;2022-09-29T12:35:24;4.28;;;2.72;;
70997;SDS011;58663;52.040;4.634;2022-09-29T12:37:56;3.50;;;2.28;;
70997;SDS011;58663;52.040;4.634;2022-09-29T12:40:29;3.17;;;2.22;;
70997;SDS011;58663;52.040;4.634;2022-09-29T12:43:01;3.13;;;2.10;;
70997;SDS011;58663;52.040;4.634;2022-09-29T12:45:51;3.53;;;2.00;;
70997;SDS011;58663;52.040;4.634;2022-09-29T12:57:11;3.40;;;1.38;;
70997;SDS011;58663;52.040;4.634;2022-09-29T13:10:31;2.33;;;1.77;;
70997;SDS011;58663;52.040;4.634;2022-09-29T13:13:11;2.05;;;1.55;;
70997;SDS011;58663;52.040;4.634;2022-09-29T13:16:02;3.00;;;1.40;;
70997;SDS011;58663;52.040;4.634;2022-09-29T13:24:23;1.70;;;1.60;;
70997;SDS011;58663;52.040;4.634;2022-09-29T13:29:26;3.03;;;1.50;;
70997;SDS011;58663;52.040;4.634;2022-09-29T13:31:53;1.85;;;1.40;;
70997;SDS011;58663;52.040;4.634;2022-09-29T13:34:27;2.47;;;1.40;;
70997;SDS011;58663;52.040;4.634;2022-09-29T13:37:03;2.30;;;1.60;;
70997;SDS011;58663;52.040;4.634;2022-09-29T13:47:52;4.60;;;1.27;;
70997;SDS011;58663;52.040;4.634;2022-09-29T14:00:52;2.50;;;1.40;;
70997;SDS011;58663;52.040;4.634;2022-09-29T14:03:23;1.52;;;1.25;;
70997;SDS011;58663;52.040;4.634;2022-09-29T14:06:02;2.20;;;1.13;;
70997;SDS011;58663;52.040;4.634;2022-09-29T14:08:29;2.35;;;1.20;;
70997;SDS011;58663;52.040;4.634;2022-09-29T14:20:59;2.83;;;1.40;;
70997;SDS011;58663;52.040;4.634;2022-09-29T14:24:02;1.75;;;1.40;;
70997;SDS011;58663;52.040;4.634;2022-09-29T14:29:51;4.03;;;1.73;;
70997;SDS011;58663;52.040;4.634;2022-09-29T14:32:22;1.65;;;1.35;;
70997;SDS011;58663;52.040;4.634;2022-09-29T14:35:16;1.75;;;1.58;;
70997;SDS011;58663;52.040;4.634;2022-09-29T14:37:43;3.05;;;1.70;;
70997;SDS011;58663;52.040;4.634;2022-09-29T14:40:13;3.00;;;1.75;;
70997;SDS011;58663;52.040;4.634;2022-09-29T14:48:32;2.42;;;1.88;;
70997;SDS011;58663;52.040;4.634;2022-09-29T14:54:36;1.50;;;1.20;;
70997;SDS011;58663;52.040;4.634;2022-09-29T15:02:28;1.33;;;1.20;;
70997;SDS011;58663;52.040;4.634;2022-09-29T15:04:55;2.08;;;1.20;;
70997;SDS011;58663;52.040;4.634;2022-09-29T15:07:21;2.83;;;1.33;;
70997;SDS011;58663;52.040;4.634;2022-09-29T15:09:49;2.95;;;1.17;;
70997;SDS011;58663;52.040;4.634;2022-09-29T15:12:22;1.63;;;1.05;;
70997;SDS011;58663;52.040;4.634;2022-09-29T15:14:53;1.52;;;1.25;;
70997;SDS011;58663;52.040;4.634;2022-09-29T15:20:21;2.20;;;1.20;;
70997;SDS011;58663;52.040;4.634;2022-09-29T15:22:57;2.08;;;1.20;;
70997;SDS011;58663;52.040;4.634;2022-09-29T15:25:45;1.83;;;1.10;;
70997;SDS011;58663;52.040;4.634;2022-09-29T15:28:15;1.00;;;0.80;;
70997;SDS011;58663;52.040;4.634;2022-09-29T15:30:43;0.95;;;0.82;;
70997;SDS011;58663;52.040;4.634;2022-09-29T15:35:43;3.47;;;0.88;;
70997;SDS011;58663;52.040;4.634;2022-09-29T15:40:37;3.45;;;1.00;;
70997;SDS011;58663;52.040;4.634;2022-09-29T15:43:08;1.90;;;1.20;;
70997;SDS011;58663;52.040;4.634;2022-09-29T15:45:51;3.42;;;1.55;;
70997;SDS011;58663;52.040;4.634;2022-09-29T15:48:19;6.82;;;1.70;;
70997;SDS011;58663;52.040;4.634;2022-09-29T15:50:45;3.03;;;1.50;;
70997;SDS011;58663;52.040;4.634;2022-09-29T15:53:10;3.13;;;1.58;;
70997;SDS011;58663;52.040;4.634;2022-09-29T15:55:36;3.45;;;1.60;;
70997;SDS011;58663;52.040;4.634;2022-09-29T15:58:05;6.53;;;1.70;;
70997;SDS011;58663;52.040;4.634;2022-09-29T16:01:08;5.25;;;1.70;;
70997;SDS011;58663;52.040;4.634;2022-09-29T16:03:38;3.92;;;1.67;;
70997;SDS011;58663;52.040;4.634;2022-09-29T16:09:04;3.58;;;1.85;;
70997;SDS011;58663;52.040;4.634;2022-09-29T16:14:02;3.63;;;1.70;;
70997;SDS011;58663;52.040;4.634;2022-09-29T16:16:34;3.47;;;1.42;;
70997;SDS011;58663;52.040;4.634;2022-09-29T16:19:08;2.22;;;1.70;;
70997;SDS011;58663;52.040;4.634;2022-09-29T16:21:38;1.80;;;1.20;;
70997;SDS011;58663;52.040;4.634;2022-09-29T16:26:33;2.92;;;1.25;;
70997;SDS011;58663;52.040;4.634;2022-09-29T16:31:47;1.58;;;1.20;;
70997;SDS011;58663;52.040;4.634;2022-09-29T16:39:20;2.58;;;1.17;;
70997;SDS011;58663;52.040;4.634;2022-09-29T16:41:51;2.83;;;0.98;;
70997;SDS011;58663;52.040;4.634;2022-09-29T16:44:31;2.58;;;1.45;;
70997;SDS011;58663;52.040;4.634;2022-09-29T16:54:38;1.95;;;1.38;;
70997;SDS011;58663;52.040;4.634;2022-09-29T16:57:14;3.10;;;1.20;;
70997;SDS011;58663;52.040;4.634;2022-09-29T17:00:15;3.13;;;1.20;;
70997;SDS011;58663;52.040;4.634;2022-09-29T17:02:40;4.65;;;1.17;;
70997;SDS011;58663;52.040;4.634;2022-09-29T17:05:05;2.80;;;1.52;;
70997;SDS011;58663;52.040;4.634;2022-09-29T17:07:31;1.20;;;1.10;;
70997;SDS011;58663;52.040;4.634;2022-09-29T17:10:03;2.53;;;1.55;;
70997;SDS011;58663;52.040;4.634;2022-09-29T17:12:31;2.85;;;1.38;;
70997;SDS011;58663;52.040;4.634;2022-09-29T17:14:57;5.18;;;1.40;;
70997;SDS011;58663;52.040;4.634;2022-09-29T17:17:24;1.73;;;1.40;;
70997;SDS011;58663;52.040;4.634;2022-09-29T17:19:52;3.45;;;1.70;;
70997;SDS011;58663;52.040;4.634;2022-09-29T17:24:54;2.97;;;2.38;;
70997;SDS011;58663;52.040;4.634;2022-09-29T17:27:20;3.00;;;1.80;;
70997;SDS011;58663;52.040;4.634;2022-09-29T17:30:05;2.70;;;1.85;;
70997;SDS011;58663;52.040;4.634;2022-09-29T17:32:31;2.20;;;2.00;;
70997;SDS011;58663;52.040;4.634;2022-09-29T17:34:57;2.38;;;1.80;;
70997;SDS011;58663;52.040;4.634;2022-09-29T17:37:22;2.72;;;1.80;;
70997;SDS011;58663;52.040;4.634;2022-09-29T17:39:48;6.13;;;2.00;;
70997;SDS011;58663;52.040;4.634;2022-09-29T17:42:14;4.53;;;2.10;;
70997;SDS011;58663;52.040;4.634;2022-09-29T17:44:39;2.90;;;1.92;;
70997;SDS011;58663;52.040;4.634;2022-09-29T17:47:12;6.15;;;2.10;;
70997;SDS011;58663;52.040;4.634;2022-09-29T17:49:39;3.58;;;1.92;;
70997;SDS011;58663;52.040;4.634;2022-09-29T17:52:05;5.30;;;2.08;;
70997;SDS011;58663;52.040;4.634;2022-09-29T17:54:33;2.53;;;2.22;;
70997;SDS011;58663;52.040;4.634;2022-09-29T17:56:59;4.53;;;2.10;;
70997;SDS011;58663;52.040;4.634;2022-09-29T17:59:25;4.38;;;2.33;;
70997;SDS011;58663;52.040;4.634;2022-09-29T18:01:51;3.55;;;2.10;;
70997;SDS011;58663;52.040;4.634;2022-09-29T18:04:18;5.68;;;2.28;;
70997;SDS011;58663;52.040;4.634;2022-09-29T18:06:43;4.00;;;2.42;;
70997;SDS011;58663;52.040;4.634;2022-09-29T18:09:15;3.00;;;2.50;;
70997;SDS011;58663;52.040;4.634;2022-09-29T18:11:41;4.55;;;2.45;;
70997;SDS011;58663;52.040;4.634;2022-09-29T18:14:07;4.80;;;2.63;;
70997;SDS011;58663;52.040;4.634;2022-09-29T18:16:33;5.78;;;3.15;;
70997;SDS011;58663;52.040;4.634;2022-09-29T18:18:58;4.68;;;3.10;;
70997;SDS011;58663;52.040;4.634;2022-09-29T18:21:24;4.28;;;3.10;;
70997;SDS011;58663;52.040;4.634;2022-09-29T18:23:50;3.75;;;2.90;;
70997;SDS011;58663;52.040;4.634;2022-09-29T18:26:15;8.05;;;4.40;;
70997;SDS011;58663;52.040;4.634;2022-09-29T18:28:42;14.43;;;7.00;;
70997;SDS011;58663;52.040;4.634;2022-09-29T18:31:22;11.38;;;7.60;;
70997;SDS011;58663;52.040;4.634;2022-09-29T18:33:50;7.47;;;5.45;;
70997;SDS011;58663;52.040;4.634;2022-09-29T18:36:16;7.60;;;4.72;;
70997;SDS011;58663;52.040;4.634;2022-09-29T18:38:41;9.63;;;4.45;;
70997;SDS011;58663;52.040;4.634;2022-09-29T18:41:17;7.35;;;4.53;;
70997;SDS011;58663;52.040;4.634;2022-09-29T18:43:51;7.88;;;4.10;;
70997;SDS011;58663;52.040;4.634;2022-09-29T18:46:17;7.40;;;4.20;;
70997;SDS011;58663;52.040;4.634;2022-09-29T18:48:42;5.05;;;3.88;;
70997;SDS011;58663;52.040;4.634;2022-09-29T18:51:08;6.20;;;3.63;;
70997;SDS011;58663;52.040;4.634;2022-09-29T18:53:37;4.97;;;3.80;;
70997;SDS011;58663;52.040;4.634;2022-09-29T18:56:03;7.20;;;4.25;;
70997;SDS011;58663;52.040;4.634;2022-09-29T18:58:29;4.75;;;3.90;;